KADWMUGM

Guest
Details From KADW - Andrews Afb
To MUGM - Guantanamo Bay Ns
Flight Number -
Tags Generated
Created
Modified
Stats Distance 1,139 nm / 2,109 km
Max Altitude 0 ft / 0 m
Waypoints 5
Social Downloads 1
Likes 0
Share VATSIM

Download

Looking for another format? Having issues loading an existing format? Contact us
Advertisement - Login to hide

Notes

Generated

Route

KADW CIGOR EVETS UGT MUGM

ID Type Via Altitude Latitude Longitude Leg Dist Tot Dist Heading (true) Name
O KADW APT - 0 ft / 0 m 38.79772˚ -76.87059˚ - 0 nm - -
CIGOR FIX - 0 ft / 0 m 34.80600˚ -76.44953˚ 240 nm 240 nm 175° / 175° -
EVETS FIX - 0 ft / 0 m 23.67822˚ -75.40840˚ 670 nm 911 nm 175° / 176° -
UGT NDB - 0 ft / 0 m 20.07889˚ -75.15833˚ 216 nm 1127 nm 176° / 176° GUANTANAMO NDB
O MUGM APT - 0 ft / 0 m 19.90667˚ -75.21869˚ 10 nm 1138 nm 198° / 198° -

Altitude Profile

Advertisement - Login to hide

Weather


0- 5 10 15 20 25 30 35+ Temperature / ° C

Clouds and Precipitation
Forecast for 2018-05-25 12:00 UTC. Updated 2 hours ago

Ground ~20,000 ft ~40,000 ft Winds

KADW

Details ICAO KADW (ADW)
Name Andrews AFB
Region United States
Timezone America/New_York (UTC-4.0)
Stats Elevation 280 ft / 85 m (AMSL)
Location 38.810809° -76.867122°
Runways 2
Magnetic Variation 10.917° W

METAR

KADW 251056Z AUTO 00000KT 10SM CLR 17/15 A3010 RMK AO2 SLP198 T01720152

Decode

TAF

TAF TAF KADW 250900Z 2509/2615 18006KT 9999 SKC QNH3009INS BECMG 2514/2515 23012KT 9999 FEW045 QNH3005INS BECMG 2522/2523 19006KT 9999 SCT040 QNH2996INS BECMG 2614/2615 22012G18KT 9999 FEW045 BKN080 QNH2991INS TX30/2520Z TN16/2509Z

Decode

Departure Runways

ID Width Length Bearing (true) Bearing (mag) Surface Threshold Offset Overrun Length
01L 200 ft / 61 m 9,318 ft / 2,840 m 359.87° 10.79° Concrete 0 ft / 0 m 1,000 ft / 305 m
01R 150 ft / 46 m 9,775 ft / 2,979 m 359.87° 10.79° Asphalt 0 ft / 0 m 1,000 ft / 305 m
19L 150 ft / 46 m 9,775 ft / 2,979 m 179.87° 190.79° Asphalt 0 ft / 0 m 960 ft / 293 m
19R 200 ft / 61 m 9,318 ft / 2,840 m 179.87° 190.79° Concrete 0 ft / 0 m 999 ft / 305 m

MUGM

Details ICAO MUGM
Name Guantanamo Bay Ns
Region Cuba
Timezone Unknown (UTC+0.0)
Stats Elevation 56 ft / 17 m (AMSL)
Location 19.906458° -75.207055°
Runways 1
Magnetic Variation 8.796° W

METAR

MUGM 251056Z 36005KT 9999 FEW025 SCT280 24/24 A2996 RMK SLP146 T02440244

Decode

TAF

TAF AMD MUGM 2508/2607 35008KT 9999 VCSH FEW030 BKN080 BKN280 QNH2995INS BECMG 2515/2517 13011KT 9999 VCSH FEW032 SCT080 BKN280 QNH2986INS BECMG 2522/2600 04006KT 9999 NSW SCT050 QNH2990 T23/2511Z T32/2518Z AMD 1045 FN20026

Decode

Destination Runways

ID Width Length Bearing (true) Bearing (mag) Surface Threshold Offset Overrun Length
10 200 ft / 61 m 7,988 ft / 2,435 m 91.09° 99.89° Asphalt 100 ft / 30 m 150 ft / 46 m
28 200 ft / 61 m 7,988 ft / 2,435 m 271.10° 279.90° Asphalt 100 ft / 30 m 150 ft / 46 m